createdAt,value
2022-08-05T00:04:24.922Z,37.13
2022-08-05T00:09:22.299Z,37.80
2022-08-05T00:14:19.734Z,37.84
2022-08-05T00:19:17.433Z,37.73
2022-08-05T00:24:31.240Z,38.56
2022-08-05T00:29:37.767Z,38.60
2022-08-05T00:34:56.931Z,38.98
2022-08-05T00:39:57.923Z,38.83
2022-08-05T00:44:56.519Z,39.21
2022-08-05T00:49:54.700Z,39.46
2022-08-05T00:54:53.363Z,39.73
2022-08-05T00:59:54.134Z,39.67
2022-08-05T01:04:51.788Z,39.24
2022-08-05T01:09:55.511Z,39.48
2022-08-05T01:14:58.769Z,39.20
2022-08-05T01:20:22.263Z,39.63
2022-08-05T01:25:41.572Z,39.47
2022-08-05T01:30:46.529Z,40.04
2022-08-05T01:35:53.413Z,40.54
2022-08-05T01:40:52.539Z,41.04
2022-08-05T01:45:56.219Z,41.24
2022-08-05T01:50:55.435Z,41.57
2022-08-05T01:55:59.093Z,42.13
2022-08-05T02:01:06.027Z,42.56
2022-08-05T02:06:37.892Z,42.31
2022-08-05T02:11:48.141Z,42.40
2022-08-05T02:16:54.830Z,42.70
2022-08-05T02:22:02.239Z,42.52
2022-08-05T02:27:09.995Z,42.91
2022-08-05T02:32:24.259Z,42.97
2022-08-05T02:37:40.065Z,43.23
2022-08-05T02:42:42.711Z,43.30
2022-08-05T02:48:45.562Z,43.12
2022-08-05T02:54:04.048Z,43.79
2022-08-05T02:59:02.428Z,43.62
2022-08-05T03:04:14.280Z,43.74
2022-08-05T03:09:17.874Z,43.94
2022-08-05T03:14:27.011Z,44.19
2022-08-05T03:19:33.853Z,44.31
2022-08-05T03:24:34.034Z,44.53
2022-08-05T03:29:46.065Z,44.56
2022-08-05T03:34:55.472Z,44.42
2022-08-05T03:39:58.990Z,44.44
2022-08-05T03:44:58.754Z,44.68
2022-08-05T03:49:56.329Z,44.62
2022-08-05T03:55:52.149Z,44.86
2022-08-05T04:00:21.467Z,44.48
2022-08-05T04:05:23.137Z,44.60
2022-08-05T04:10:24.200Z,44.24
2022-08-05T04:15:33.294Z,44.46
2022-08-05T04:20:41.339Z,43.91
2022-08-05T04:26:00.413Z,43.47
2022-08-05T04:31:10.868Z,43.12
2022-08-05T04:36:45.080Z,42.85
2022-08-05T04:42:12.026Z,43.34
2022-08-05T04:48:01.869Z,43.16
2022-08-05T04:53:29.238Z,42.33
2022-08-05T05:00:01.607Z,42.09
2022-08-05T05:05:16.563Z,40.54
2022-08-05T05:11:05.966Z,40.38
2022-08-05T05:16:44.619Z,40.25
2022-08-05T05:21:47.688Z,39.88
2022-08-05T05:26:46.583Z,39.34
2022-08-05T05:31:49.929Z,39.14
2022-08-05T05:36:51.150Z,38.61
2022-08-05T05:41:54.371Z,36.43
2022-08-05T05:46:56.583Z,32.59
2022-08-05T05:51:55.756Z,29.18
2022-08-05T05:56:58.982Z,27.85
2022-08-05T06:01:58.218Z,26.64
2022-08-05T06:07:07.784Z,24.79
2022-08-05T06:12:12.149Z,23.81
2022-08-05T06:17:21.954Z,23.16
2022-08-05T06:22:29.895Z,23.02
2022-08-05T06:28:11.315Z,22.50
2022-08-05T06:32:50.691Z,21.83
2022-08-05T06:37:57.826Z,21.96
2022-08-05T06:43:04.203Z,21.29
2022-08-05T06:48:52.857Z,21.37
2022-08-05T06:53:31.414Z,21.13
2022-08-05T06:58:47.383Z,20.28
2022-08-05T07:03:49.838Z,20.79
2022-08-05T07:08:59.152Z,19.61
2022-08-05T07:14:29.224Z,18.63
2022-08-05T07:25:21.828Z,18.99
2022-08-05T07:30:30.685Z,18.86
2022-08-05T07:36:02.995Z,18.55
2022-08-05T07:41:16.514Z,18.97
2022-08-05T07:46:25.687Z,19.42
2022-08-05T07:51:40.421Z,19.51
2022-08-05T07:57:13.611Z,20.03
2022-08-05T08:02:15.325Z,19.26
2022-08-05T08:07:22.456Z,20.28
2022-08-05T08:12:37.143Z,20.69
2022-08-05T08:17:36.995Z,21.21
2022-08-05T08:22:35.607Z,20.91
2022-08-05T08:27:44.851Z,20.61
2022-08-05T08:32:48.367Z,20.33
2022-08-05T08:38:16.402Z,20.90
2022-08-05T08:45:20.313Z,19.49
2022-08-05T08:50:22.384Z,19.75
2022-08-05T08:55:19.449Z,20.34
2022-08-05T09:00:33.773Z,19.55
2022-08-05T09:05:38.221Z,20.30
2022-08-05T09:16:34.783Z,19.89
2022-08-05T09:28:08.902Z,19.68
2022-08-05T09:33:18.934Z,18.33
2022-08-05T09:38:29.605Z,18.62
2022-08-05T09:49:54.762Z,18.06
2022-08-05T09:54:52.669Z,17.90
2022-08-05T09:59:55.262Z,17.99
2022-08-05T10:05:21.443Z,18.37
2022-08-05T10:11:12.924Z,17.26
2022-08-05T10:16:30.501Z,17.57
2022-08-05T10:21:42.395Z,18.91
2022-08-05T10:26:51.604Z,18.04
2022-08-05T10:32:52.604Z,18.21
2022-08-05T10:37:21.833Z,18.52
2022-08-05T10:42:54.419Z,19.40
2022-08-05T10:48:52.308Z,19.75
2022-08-05T10:54:01.523Z,19.41
2022-08-05T11:00:03.391Z,18.88
2022-08-05T11:04:55.495Z,19.61
2022-08-05T11:10:03.627Z,20.20
2022-08-05T11:15:58.870Z,21.33
2022-08-05T11:21:12.968Z,21.60
2022-08-05T11:26:32.050Z,22.06
2022-08-05T11:31:56.778Z,22.75
2022-08-05T11:37:01.959Z,22.75
2022-08-05T11:42:28.016Z,22.74
2022-08-05T11:47:49.763Z,23.05
2022-08-05T11:53:11.644Z,23.16
2022-08-05T11:58:19.160Z,23.01
2022-08-05T12:03:28.639Z,23.04
2022-08-05T12:08:31.441Z,23.45
2022-08-05T12:13:48.790Z,23.75
2022-08-05T12:18:52.186Z,24.23
2022-08-05T12:23:59.867Z,24.12
2022-08-05T12:28:58.376Z,24.04
2022-08-05T12:33:56.887Z,23.64
2022-08-05T12:39:00.402Z,23.20
2022-08-05T12:44:34.371Z,23.68
2022-08-05T12:50:04.369Z,23.72
2022-08-05T12:55:00.753Z,22.77
2022-08-05T13:02:01.451Z,22.51
2022-08-05T13:05:43.044Z,23.16
2022-08-05T13:10:50.621Z,23.69
2022-08-05T13:15:52.832Z,23.52
2022-08-05T13:21:21.161Z,24.23
2022-08-05T13:26:30.330Z,23.72
2022-08-05T13:31:33.899Z,22.43
2022-08-05T13:36:45.923Z,22.44
2022-08-05T13:41:45.567Z,22.60
2022-08-05T13:47:02.438Z,22.64
2022-08-05T13:52:11.228Z,22.49
2022-08-05T13:57:10.338Z,21.77
2022-08-05T14:02:42.356Z,22.12
2022-08-05T14:08:00.249Z,23.03
2022-08-05T14:13:07.655Z,22.84
2022-08-05T14:18:05.236Z,22.47
2022-08-05T14:23:19.295Z,22.93
2022-08-05T14:28:52.421Z,23.23
2022-08-05T14:34:11.865Z,22.76
2022-08-05T14:39:23.167Z,23.46
2022-08-05T14:44:48.555Z,23.66
2022-08-05T14:49:59.505Z,23.41
2022-08-05T14:54:59.020Z,23.25
2022-08-05T15:00:04.755Z,23.79
2022-08-05T15:05:17.482Z,24.43
2022-08-05T15:10:19.619Z,24.27
2022-08-05T15:15:55.222Z,23.71
2022-08-05T15:21:07.581Z,24.01
2022-08-05T15:26:32.203Z,24.52
2022-08-05T15:31:55.480Z,24.25
2022-08-05T15:37:19.367Z,25.01
2022-08-05T15:42:55.709Z,25.40
2022-08-05T15:47:58.966Z,25.80
2022-08-05T15:53:15.811Z,25.90
2022-08-05T15:58:23.282Z,25.64
2022-08-05T16:03:22.403Z,25.86
2022-08-05T16:08:19.621Z,26.07
2022-08-05T16:13:34.770Z,26.18
2022-08-05T16:24:41.247Z,26.24
2022-08-05T16:29:50.986Z,25.65
2022-08-05T16:34:52.347Z,25.58
2022-08-05T16:40:04.852Z,25.59
2022-08-05T16:46:06.566Z,25.57
2022-08-05T16:50:28.972Z,26.22
2022-08-05T16:55:46.344Z,26.47
2022-08-05T17:00:48.189Z,26.52
2022-08-05T17:05:59.821Z,26.18
2022-08-05T17:11:05.795Z,26.90
2022-08-05T17:16:30.155Z,26.41
2022-08-05T17:21:36.358Z,27.36
2022-08-05T17:26:40.805Z,27.17
2022-08-05T17:31:56.623Z,27.71
2022-08-05T17:37:01.336Z,27.48
2022-08-05T17:42:28.495Z,27.48
2022-08-05T17:47:36.050Z,27.54
2022-08-05T17:52:56.327Z,27.72
2022-08-05T17:57:58.092Z,27.51
2022-08-05T18:02:57.352Z,27.97
2022-08-05T18:07:59.151Z,27.90
2022-08-05T18:12:56.770Z,28.18
2022-08-05T18:18:01.504Z,28.52
2022-08-05T18:23:09.487Z,28.46
2022-08-05T18:28:16.085Z,28.49
2022-08-05T18:33:22.984Z,28.51
2022-08-05T18:38:26.687Z,28.79
2022-08-05T18:43:31.584Z,29.36
2022-08-05T18:49:03.971Z,29.57
2022-08-05T18:54:13.357Z,29.60
2022-08-05T18:59:43.212Z,29.79
2022-08-05T19:04:32.770Z,30.31
2022-08-05T19:09:40.021Z,30.40
2022-08-05T19:14:59.719Z,30.76
2022-08-05T19:20:10.840Z,30.60
2022-08-05T19:25:29.675Z,31.07
2022-08-05T19:30:48.835Z,31.60
2022-08-05T19:35:56.586Z,31.56
2022-08-05T19:41:06.973Z,31.93
2022-08-05T19:46:29.130Z,32.15
2022-08-05T19:52:09.240Z,32.25
2022-08-05T19:56:51.523Z,32.57
2022-08-05T20:02:03.226Z,32.35
2022-08-05T20:07:10.304Z,32.61
2022-08-05T20:12:46.002Z,32.68
2022-08-05T20:17:59.141Z,32.83
2022-08-05T20:23:04.217Z,32.84
2022-08-05T20:28:06.637Z,33.36
2022-08-05T20:33:08.580Z,33.18
2022-08-05T20:38:11.258Z,33.07
2022-08-05T20:43:33.390Z,33.26
2022-08-05T20:48:43.890Z,33.46
2022-08-05T20:53:43.558Z,33.54
2022-08-05T20:59:00.026Z,33.65
2022-08-05T21:04:11.132Z,33.84
2022-08-05T21:09:15.309Z,33.68
2022-08-05T21:14:13.495Z,33.57
2022-08-05T21:19:12.753Z,33.95
2022-08-05T21:24:15.901Z,33.96
2022-08-05T21:29:16.811Z,33.78
2022-08-05T21:34:24.074Z,33.70
2022-08-05T21:39:29.033Z,33.70
2022-08-05T21:44:35.573Z,33.92
2022-08-05T21:49:59.397Z,34.19
2022-08-05T21:55:06.311Z,34.00
2022-08-05T22:00:11.761Z,34.09
2022-08-05T22:05:20.999Z,34.17
2022-08-05T22:10:31.051Z,35.44
2022-08-05T22:15:57.196Z,35.48
2022-08-05T22:20:51.721Z,35.78
2022-08-05T22:26:09.922Z,36.63
2022-08-05T22:31:12.430Z,37.01
2022-08-05T22:36:14.733Z,37.28
2022-08-05T22:41:12.500Z,36.81
2022-08-05T22:46:20.985Z,37.55
2022-08-05T22:51:23.220Z,37.63
2022-08-05T22:56:39.959Z,37.39
2022-08-05T23:01:50.798Z,37.23
2022-08-05T23:07:13.116Z,37.67
2022-08-05T23:12:12.372Z,37.70
2022-08-05T23:17:34.887Z,37.85
2022-08-05T23:22:35.353Z,38.20
2022-08-05T23:27:42.416Z,37.98
2022-08-05T23:32:57.574Z,37.93
2022-08-05T23:37:56.815Z,38.66
2022-08-05T23:42:57.022Z,39.16
2022-08-05T23:48:04.424Z,42.11
2022-08-05T23:53:04.321Z,45.55
2022-08-05T23:58:44.429Z,42.99
